sensor_id;sensor_type;location;lat;lon;timestamp;P1;durP1;ratioP1;P2;durP2;ratioP2
72611;SDS011;60655;52.182;4.474;2023-04-29T00:00:04;33.63;;;13.68;;
72611;SDS011;60655;52.182;4.474;2023-04-29T00:02:06;31.23;;;15.20;;
72611;SDS011;60655;52.182;4.474;2023-04-29T00:04:07;29.63;;;14.25;;
72611;SDS011;60655;52.182;4.474;2023-04-29T00:06:08;29.52;;;13.55;;
72611;SDS011;60655;52.182;4.474;2023-04-29T00:08:11;32.10;;;15.13;;
72611;SDS011;60655;52.182;4.474;2023-04-29T00:10:12;27.95;;;14.65;;
72611;SDS011;60655;52.182;4.474;2023-04-29T00:12:14;28.35;;;14.27;;
72611;SDS011;60655;52.182;4.474;2023-04-29T00:14:15;33.05;;;15.38;;
72611;SDS011;60655;52.182;4.474;2023-04-29T00:16:16;32.22;;;13.10;;
72611;SDS011;60655;52.182;4.474;2023-04-29T00:20:18;29.63;;;12.75;;
72611;SDS011;60655;52.182;4.474;2023-04-29T00:22:19;28.67;;;14.18;;
72611;SDS011;60655;52.182;4.474;2023-04-29T00:24:22;37.03;;;13.73;;
72611;SDS011;60655;52.182;4.474;2023-04-29T00:26:23;33.33;;;14.82;;
72611;SDS011;60655;52.182;4.474;2023-04-29T00:28:24;28.20;;;13.93;;
72611;SDS011;60655;52.182;4.474;2023-04-29T00:30:25;31.83;;;13.60;;
72611;SDS011;60655;52.182;4.474;2023-04-29T00:32:26;32.65;;;14.15;;
72611;SDS011;60655;52.182;4.474;2023-04-29T00:34:27;27.77;;;13.98;;
72611;SDS011;60655;52.182;4.474;2023-04-29T00:38:28;28.23;;;12.75;;
72611;SDS011;60655;52.182;4.474;2023-04-29T00:40:29;31.13;;;13.48;;
72611;SDS011;60655;52.182;4.474;2023-04-29T00:42:30;29.48;;;13.68;;
72611;SDS011;60655;52.182;4.474;2023-04-29T00:44:34;28.45;;;12.30;;
72611;SDS011;60655;52.182;4.474;2023-04-29T00:46:35;30.33;;;13.48;;
72611;SDS011;60655;52.182;4.474;2023-04-29T00:48:36;33.50;;;13.30;;
72611;SDS011;60655;52.182;4.474;2023-04-29T00:50:37;31.65;;;14.15;;
72611;SDS011;60655;52.182;4.474;2023-04-29T00:52:38;28.80;;;12.57;;
72611;SDS011;60655;52.182;4.474;2023-04-29T00:54:39;38.35;;;15.32;;
72611;SDS011;60655;52.182;4.474;2023-04-29T00:56:41;30.98;;;12.77;;
72611;SDS011;60655;52.182;4.474;2023-04-29T00:58:45;24.50;;;12.80;;
72611;SDS011;60655;52.182;4.474;2023-04-29T01:00:49;34.58;;;14.63;;
72611;SDS011;60655;52.182;4.474;2023-04-29T01:02:51;27.90;;;13.00;;
72611;SDS011;60655;52.182;4.474;2023-04-29T01:04:53;34.60;;;14.52;;
72611;SDS011;60655;52.182;4.474;2023-04-29T01:07:03;26.83;;;12.35;;
72611;SDS011;60655;52.182;4.474;2023-04-29T01:11:29;28.60;;;12.85;;
72611;SDS011;60655;52.182;4.474;2023-04-29T01:16:02;41.63;;;14.82;;
72611;SDS011;60655;52.182;4.474;2023-04-29T01:20:14;31.27;;;13.20;;
72611;SDS011;60655;52.182;4.474;2023-04-29T01:22:16;28.88;;;14.25;;
72611;SDS011;60655;52.182;4.474;2023-04-29T01:24:18;27.42;;;14.35;;
72611;SDS011;60655;52.182;4.474;2023-04-29T01:26:19;32.97;;;14.18;;
72611;SDS011;60655;52.182;4.474;2023-04-29T01:35:32;29.10;;;14.48;;
72611;SDS011;60655;52.182;4.474;2023-04-29T01:37:57;29.45;;;13.90;;
72611;SDS011;60655;52.182;4.474;2023-04-29T01:40:14;27.25;;;11.70;;
72611;SDS011;60655;52.182;4.474;2023-04-29T01:42:21;25.55;;;10.55;;
72611;SDS011;60655;52.182;4.474;2023-04-29T01:44:28;27.02;;;10.30;;
72611;SDS011;60655;52.182;4.474;2023-04-29T01:46:31;23.85;;;11.25;;
72611;SDS011;60655;52.182;4.474;2023-04-29T01:48:32;24.63;;;11.13;;
72611;SDS011;60655;52.182;4.474;2023-04-29T01:50:33;22.80;;;10.43;;
72611;SDS011;60655;52.182;4.474;2023-04-29T01:52:34;20.60;;;11.10;;
72611;SDS011;60655;52.182;4.474;2023-04-29T01:54:36;22.13;;;9.98;;
72611;SDS011;60655;52.182;4.474;2023-04-29T01:56:37;19.48;;;9.75;;
72611;SDS011;60655;52.182;4.474;2023-04-29T01:58:38;23.85;;;9.75;;
72611;SDS011;60655;52.182;4.474;2023-04-29T02:00:39;27.40;;;11.35;;
72611;SDS011;60655;52.182;4.474;2023-04-29T02:02:41;20.70;;;9.77;;
72611;SDS011;60655;52.182;4.474;2023-04-29T02:04:42;22.92;;;11.13;;
72611;SDS011;60655;52.182;4.474;2023-04-29T02:06:43;24.10;;;10.20;;
72611;SDS011;60655;52.182;4.474;2023-04-29T02:08:44;25.10;;;10.27;;
72611;SDS011;60655;52.182;4.474;2023-04-29T02:10:54;21.73;;;10.52;;
72611;SDS011;60655;52.182;4.474;2023-04-29T02:12:56;21.52;;;9.40;;
72611;SDS011;60655;52.182;4.474;2023-04-29T02:14:57;22.60;;;10.50;;
72611;SDS011;60655;52.182;4.474;2023-04-29T02:16:59;22.55;;;10.13;;
72611;SDS011;60655;52.182;4.474;2023-04-29T02:19:00;21.58;;;10.02;;
72611;SDS011;60655;52.182;4.474;2023-04-29T02:21:01;21.17;;;9.25;;
72611;SDS011;60655;52.182;4.474;2023-04-29T02:23:02;21.38;;;10.07;;
72611;SDS011;60655;52.182;4.474;2023-04-29T02:25:03;22.42;;;10.85;;
72611;SDS011;60655;52.182;4.474;2023-04-29T02:27:06;18.63;;;9.45;;
72611;SDS011;60655;52.182;4.474;2023-04-29T02:29:07;24.73;;;10.35;;
72611;SDS011;60655;52.182;4.474;2023-04-29T02:31:08;23.10;;;10.18;;
72611;SDS011;60655;52.182;4.474;2023-04-29T02:33:09;24.67;;;9.95;;
72611;SDS011;60655;52.182;4.474;2023-04-29T02:35:10;27.25;;;11.52;;
72611;SDS011;60655;52.182;4.474;2023-04-29T02:37:12;22.17;;;9.80;;
72611;SDS011;60655;52.182;4.474;2023-04-29T02:39:13;18.50;;;9.18;;
72611;SDS011;60655;52.182;4.474;2023-04-29T02:41:16;21.48;;;10.60;;
72611;SDS011;60655;52.182;4.474;2023-04-29T02:43:17;22.23;;;10.85;;
72611;SDS011;60655;52.182;4.474;2023-04-29T02:45:18;23.92;;;10.40;;
72611;SDS011;60655;52.182;4.474;2023-04-29T02:47:19;20.42;;;10.00;;
72611;SDS011;60655;52.182;4.474;2023-04-29T02:49:21;19.63;;;9.52;;
72611;SDS011;60655;52.182;4.474;2023-04-29T02:51:22;20.05;;;8.70;;
72611;SDS011;60655;52.182;4.474;2023-04-29T02:53:23;25.92;;;9.95;;
72611;SDS011;60655;52.182;4.474;2023-04-29T02:55:23;20.77;;;9.43;;
72611;SDS011;60655;52.182;4.474;2023-04-29T02:57:24;24.40;;;9.80;;
72611;SDS011;60655;52.182;4.474;2023-04-29T02:59:25;23.23;;;9.60;;
72611;SDS011;60655;52.182;4.474;2023-04-29T03:01:27;20.40;;;9.52;;
72611;SDS011;60655;52.182;4.474;2023-04-29T03:03:28;23.90;;;10.00;;
72611;SDS011;60655;52.182;4.474;2023-04-29T03:05:29;20.70;;;9.50;;
72611;SDS011;60655;52.182;4.474;2023-04-29T03:07:31;23.00;;;9.80;;
72611;SDS011;60655;52.182;4.474;2023-04-29T03:09:32;28.02;;;10.93;;
72611;SDS011;60655;52.182;4.474;2023-04-29T03:11:33;21.55;;;10.25;;
72611;SDS011;60655;52.182;4.474;2023-04-29T03:13:34;23.40;;;10.43;;
72611;SDS011;60655;52.182;4.474;2023-04-29T03:15:35;25.10;;;11.38;;
72611;SDS011;60655;52.182;4.474;2023-04-29T03:17:36;25.08;;;10.45;;
72611;SDS011;60655;52.182;4.474;2023-04-29T03:19:37;23.80;;;10.27;;
72611;SDS011;60655;52.182;4.474;2023-04-29T03:21:38;28.40;;;11.05;;
72611;SDS011;60655;52.182;4.474;2023-04-29T03:23:39;21.42;;;9.05;;
72611;SDS011;60655;52.182;4.474;2023-04-29T03:25:40;24.98;;;9.30;;
72611;SDS011;60655;52.182;4.474;2023-04-29T03:27:41;26.33;;;10.00;;
72611;SDS011;60655;52.182;4.474;2023-04-29T03:29:42;22.50;;;10.68;;
72611;SDS011;60655;52.182;4.474;2023-04-29T03:31:43;22.85;;;9.82;;
72611;SDS011;60655;52.182;4.474;2023-04-29T03:33:44;23.60;;;10.10;;
72611;SDS011;60655;52.182;4.474;2023-04-29T03:35:45;23.52;;;10.07;;
72611;SDS011;60655;52.182;4.474;2023-04-29T03:37:46;22.67;;;9.35;;
72611;SDS011;60655;52.182;4.474;2023-04-29T03:39:47;28.65;;;10.13;;
72611;SDS011;60655;52.182;4.474;2023-04-29T03:41:48;25.42;;;9.63;;
72611;SDS011;60655;52.182;4.474;2023-04-29T03:43:49;24.58;;;11.60;;
72611;SDS011;60655;52.182;4.474;2023-04-29T03:45:51;24.50;;;9.90;;
72611;SDS011;60655;52.182;4.474;2023-04-29T03:47:52;19.20;;;10.45;;
72611;SDS011;60655;52.182;4.474;2023-04-29T03:49:54;25.33;;;10.13;;
72611;SDS011;60655;52.182;4.474;2023-04-29T03:51:55;28.35;;;11.07;;
72611;SDS011;60655;52.182;4.474;2023-04-29T03:53:56;26.38;;;10.82;;
72611;SDS011;60655;52.182;4.474;2023-04-29T03:55:57;25.83;;;9.82;;
72611;SDS011;60655;52.182;4.474;2023-04-29T03:57:58;23.88;;;10.35;;
72611;SDS011;60655;52.182;4.474;2023-04-29T03:59:59;28.00;;;11.68;;
72611;SDS011;60655;52.182;4.474;2023-04-29T04:02:00;28.33;;;11.30;;
72611;SDS011;60655;52.182;4.474;2023-04-29T04:04:01;29.38;;;10.10;;
72611;SDS011;60655;52.182;4.474;2023-04-29T04:06:02;30.42;;;11.55;;
72611;SDS011;60655;52.182;4.474;2023-04-29T04:08:03;28.65;;;11.35;;
72611;SDS011;60655;52.182;4.474;2023-04-29T04:10:04;25.35;;;10.60;;
72611;SDS011;60655;52.182;4.474;2023-04-29T04:12:05;28.45;;;11.95;;
72611;SDS011;60655;52.182;4.474;2023-04-29T04:14:07;30.45;;;11.32;;
72611;SDS011;60655;52.182;4.474;2023-04-29T04:16:08;32.30;;;11.40;;
72611;SDS011;60655;52.182;4.474;2023-04-29T04:18:10;30.38;;;11.45;;
72611;SDS011;60655;52.182;4.474;2023-04-29T04:20:11;26.00;;;11.57;;
72611;SDS011;60655;52.182;4.474;2023-04-29T04:22:12;32.90;;;12.60;;
72611;SDS011;60655;52.182;4.474;2023-04-29T04:24:13;29.35;;;11.70;;
72611;SDS011;60655;52.182;4.474;2023-04-29T04:26:14;28.70;;;11.63;;
72611;SDS011;60655;52.182;4.474;2023-04-29T04:28:15;25.90;;;11.45;;
72611;SDS011;60655;52.182;4.474;2023-04-29T04:30:16;36.60;;;12.38;;
72611;SDS011;60655;52.182;4.474;2023-04-29T04:32:17;32.95;;;12.65;;
72611;SDS011;60655;52.182;4.474;2023-04-29T04:34:18;30.08;;;11.55;;
72611;SDS011;60655;52.182;4.474;2023-04-29T04:36:19;26.02;;;10.25;;
72611;SDS011;60655;52.182;4.474;2023-04-29T04:38:21;34.83;;;12.90;;
72611;SDS011;60655;52.182;4.474;2023-04-29T04:40:24;31.30;;;12.70;;
72611;SDS011;60655;52.182;4.474;2023-04-29T04:42:25;29.52;;;11.68;;
72611;SDS011;60655;52.182;4.474;2023-04-29T04:44:26;31.95;;;13.07;;
72611;SDS011;60655;52.182;4.474;2023-04-29T04:46:27;36.33;;;13.57;;
72611;SDS011;60655;52.182;4.474;2023-04-29T04:48:28;32.92;;;11.88;;
72611;SDS011;60655;52.182;4.474;2023-04-29T04:50:29;31.58;;;12.55;;
72611;SDS011;60655;52.182;4.474;2023-04-29T04:52:30;28.35;;;12.05;;
72611;SDS011;60655;52.182;4.474;2023-04-29T04:54:31;31.45;;;12.38;;
72611;SDS011;60655;52.182;4.474;2023-04-29T04:56:32;37.58;;;12.90;;
72611;SDS011;60655;52.182;4.474;2023-04-29T04:58:34;31.45;;;13.27;;
72611;SDS011;60655;52.182;4.474;2023-04-29T05:00:35;33.33;;;12.07;;
72611;SDS011;60655;52.182;4.474;2023-04-29T05:02:36;28.88;;;12.52;;
72611;SDS011;60655;52.182;4.474;2023-04-29T05:04:37;29.42;;;11.63;;
72611;SDS011;60655;52.182;4.474;2023-04-29T05:06:38;26.05;;;11.80;;
72611;SDS011;60655;52.182;4.474;2023-04-29T05:08:39;27.27;;;10.38;;
72611;SDS011;60655;52.182;4.474;2023-04-29T05:10:39;26.45;;;10.50;;
72611;SDS011;60655;52.182;4.474;2023-04-29T05:12:40;28.50;;;11.23;;
72611;SDS011;60655;52.182;4.474;2023-04-29T05:14:41;29.38;;;11.00;;
72611;SDS011;60655;52.182;4.474;2023-04-29T05:16:42;28.65;;;11.27;;
72611;SDS011;60655;52.182;4.474;2023-04-29T05:18:45;23.55;;;10.90;;
72611;SDS011;60655;52.182;4.474;2023-04-29T05:20:46;25.38;;;10.68;;
72611;SDS011;60655;52.182;4.474;2023-04-29T05:22:47;29.13;;;11.70;;
72611;SDS011;60655;52.182;4.474;2023-04-29T05:24:48;26.95;;;11.13;;
72611;SDS011;60655;52.182;4.474;2023-04-29T05:26:51;25.02;;;10.30;;
72611;SDS011;60655;52.182;4.474;2023-04-29T05:28:53;27.83;;;10.30;;
72611;SDS011;60655;52.182;4.474;2023-04-29T05:30:54;24.85;;;9.38;;
72611;SDS011;60655;52.182;4.474;2023-04-29T05:32:56;28.83;;;11.43;;
72611;SDS011;60655;52.182;4.474;2023-04-29T05:34:57;29.80;;;10.50;;
72611;SDS011;60655;52.182;4.474;2023-04-29T05:38:58;25.30;;;9.27;;
72611;SDS011;60655;52.182;4.474;2023-04-29T05:40:59;22.83;;;9.75;;
72611;SDS011;60655;52.182;4.474;2023-04-29T05:43:00;22.58;;;9.70;;
72611;SDS011;60655;52.182;4.474;2023-04-29T05:45:01;24.33;;;10.27;;
72611;SDS011;60655;52.182;4.474;2023-04-29T05:47:03;22.30;;;10.40;;
72611;SDS011;60655;52.182;4.474;2023-04-29T05:49:04;28.15;;;10.98;;
72611;SDS011;60655;52.182;4.474;2023-04-29T05:51:04;22.67;;;10.07;;
72611;SDS011;60655;52.182;4.474;2023-04-29T05:53:05;29.20;;;10.45;;
72611;SDS011;60655;52.182;4.474;2023-04-29T05:55:07;24.52;;;10.07;;
72611;SDS011;60655;52.182;4.474;2023-04-29T05:57:08;22.52;;;10.70;;
72611;SDS011;60655;52.182;4.474;2023-04-29T05:59:09;26.08;;;10.25;;
72611;SDS011;60655;52.182;4.474;2023-04-29T06:01:10;24.73;;;10.10;;
72611;SDS011;60655;52.182;4.474;2023-04-29T06:03:11;27.05;;;9.40;;
72611;SDS011;60655;52.182;4.474;2023-04-29T06:05:12;24.80;;;9.90;;
72611;SDS011;60655;52.182;4.474;2023-04-29T06:07:14;24.77;;;10.55;;
72611;SDS011;60655;52.182;4.474;2023-04-29T06:09:16;26.33;;;11.15;;
72611;SDS011;60655;52.182;4.474;2023-04-29T06:11:18;24.80;;;10.65;;
72611;SDS011;60655;52.182;4.474;2023-04-29T06:13:19;30.08;;;9.98;;
72611;SDS011;60655;52.182;4.474;2023-04-29T06:15:20;26.00;;;9.27;;
72611;SDS011;60655;52.182;4.474;2023-04-29T06:17:21;26.63;;;9.60;;
72611;SDS011;60655;52.182;4.474;2023-04-29T06:19:22;22.63;;;9.07;;
72611;SDS011;60655;52.182;4.474;2023-04-29T06:21:24;22.58;;;7.70;;
72611;SDS011;60655;52.182;4.474;2023-04-29T06:23:27;21.08;;;7.28;;
72611;SDS011;60655;52.182;4.474;2023-04-29T06:25:28;21.75;;;7.55;;
72611;SDS011;60655;52.182;4.474;2023-04-29T06:27:29;19.90;;;7.43;;
72611;SDS011;60655;52.182;4.474;2023-04-29T06:29:30;23.48;;;7.68;;
72611;SDS011;60655;52.182;4.474;2023-04-29T06:31:31;17.38;;;7.28;;
72611;SDS011;60655;52.182;4.474;2023-04-29T06:33:32;16.63;;;7.07;;
72611;SDS011;60655;52.182;4.474;2023-04-29T06:35:33;15.60;;;6.60;;
72611;SDS011;60655;52.182;4.474;2023-04-29T06:37:39;14.95;;;6.63;;
72611;SDS011;60655;52.182;4.474;2023-04-29T06:39:40;15.77;;;6.55;;
72611;SDS011;60655;52.182;4.474;2023-04-29T06:41:41;15.27;;;6.95;;
72611;SDS011;60655;52.182;4.474;2023-04-29T06:43:42;17.83;;;6.38;;
72611;SDS011;60655;52.182;4.474;2023-04-29T06:45:46;16.13;;;6.38;;
72611;SDS011;60655;52.182;4.474;2023-04-29T06:47:47;18.80;;;6.80;;
72611;SDS011;60655;52.182;4.474;2023-04-29T06:49:48;20.52;;;6.65;;
72611;SDS011;60655;52.182;4.474;2023-04-29T06:51:49;14.98;;;6.88;;
72611;SDS011;60655;52.182;4.474;2023-04-29T06:53:50;20.80;;;6.72;;
72611;SDS011;60655;52.182;4.474;2023-04-29T06:55:51;17.73;;;6.85;;
72611;SDS011;60655;52.182;4.474;2023-04-29T06:57:52;16.85;;;6.72;;
72611;SDS011;60655;52.182;4.474;2023-04-29T06:59:53;15.13;;;5.93;;
72611;SDS011;60655;52.182;4.474;2023-04-29T07:01:54;21.50;;;7.90;;
72611;SDS011;60655;52.182;4.474;2023-04-29T07:03:55;14.88;;;6.20;;
72611;SDS011;60655;52.182;4.474;2023-04-29T07:05:56;18.13;;;6.55;;
72611;SDS011;60655;52.182;4.474;2023-04-29T07:07:57;19.63;;;6.97;;
72611;SDS011;60655;52.182;4.474;2023-04-29T07:09:58;19.17;;;6.63;;
72611;SDS011;60655;52.182;4.474;2023-04-29T07:11:59;19.38;;;6.88;;
72611;SDS011;60655;52.182;4.474;2023-04-29T07:14:02;19.92;;;6.97;;
72611;SDS011;60655;52.182;4.474;2023-04-29T07:16:03;19.15;;;6.57;;
72611;SDS011;60655;52.182;4.474;2023-04-29T07:18:04;19.25;;;6.90;;
72611;SDS011;60655;52.182;4.474;2023-04-29T07:20:06;17.55;;;6.43;;
72611;SDS011;60655;52.182;4.474;2023-04-29T07:22:07;23.40;;;6.43;;
72611;SDS011;60655;52.182;4.474;2023-04-29T07:24:08;14.00;;;6.43;;
72611;SDS011;60655;52.182;4.474;2023-04-29T07:26:10;14.35;;;5.57;;
72611;SDS011;60655;52.182;4.474;2023-04-29T07:28:12;16.40;;;5.60;;
72611;SDS011;60655;52.182;4.474;2023-04-29T07:30:13;16.08;;;5.82;;
72611;SDS011;60655;52.182;4.474;2023-04-29T07:32:14;13.88;;;5.63;;
72611;SDS011;60655;52.182;4.474;2023-04-29T07:34:15;16.98;;;5.80;;
72611;SDS011;60655;52.182;4.474;2023-04-29T07:36:16;15.43;;;5.85;;
72611;SDS011;60655;52.182;4.474;2023-04-29T07:38:17;17.27;;;5.78;;
72611;SDS011;60655;52.182;4.474;2023-04-29T07:40:19;19.08;;;6.88;;
72611;SDS011;60655;52.182;4.474;2023-04-29T07:42:20;11.57;;;5.38;;
72611;SDS011;60655;52.182;4.474;2023-04-29T07:44:21;14.77;;;5.22;;
72611;SDS011;60655;52.182;4.474;2023-04-29T07:46:22;13.70;;;5.43;;
72611;SDS011;60655;52.182;4.474;2023-04-29T07:48:23;16.05;;;6.05;;
72611;SDS011;60655;52.182;4.474;2023-04-29T07:50:24;14.30;;;5.28;;
72611;SDS011;60655;52.182;4.474;2023-04-29T07:52:25;17.25;;;5.65;;
72611;SDS011;60655;52.182;4.474;2023-04-29T07:54:26;12.45;;;5.45;;
72611;SDS011;60655;52.182;4.474;2023-04-29T07:56:27;14.55;;;5.13;;
72611;SDS011;60655;52.182;4.474;2023-04-29T07:58:28;13.82;;;5.05;;
72611;SDS011;60655;52.182;4.474;2023-04-29T08:00:29;20.63;;;6.07;;
72611;SDS011;60655;52.182;4.474;2023-04-29T08:02:31;13.68;;;5.32;;
72611;SDS011;60655;52.182;4.474;2023-04-29T08:04:32;13.48;;;5.88;;
72611;SDS011;60655;52.182;4.474;2023-04-29T08:06:33;14.82;;;6.45;;
72611;SDS011;60655;52.182;4.474;2023-04-29T08:08:35;15.25;;;5.75;;
72611;SDS011;60655;52.182;4.474;2023-04-29T08:10:36;15.43;;;5.35;;
72611;SDS011;60655;52.182;4.474;2023-04-29T08:12:40;11.15;;;5.13;;
72611;SDS011;60655;52.182;4.474;2023-04-29T08:14:41;17.08;;;5.72;;
72611;SDS011;60655;52.182;4.474;2023-04-29T08:16:42;14.48;;;5.82;;
72611;SDS011;60655;52.182;4.474;2023-04-29T08:18:43;14.90;;;5.03;;
72611;SDS011;60655;52.182;4.474;2023-04-29T08:20:44;11.63;;;5.03;;
72611;SDS011;60655;52.182;4.474;2023-04-29T08:22:47;13.07;;;5.20;;
72611;SDS011;60655;52.182;4.474;2023-04-29T08:24:48;13.88;;;5.82;;
72611;SDS011;60655;52.182;4.474;2023-04-29T08:26:49;12.75;;;5.75;;
72611;SDS011;60655;52.182;4.474;2023-04-29T08:28:51;13.52;;;5.65;;
72611;SDS011;60655;52.182;4.474;2023-04-29T08:30:52;14.65;;;5.22;;
72611;SDS011;60655;52.182;4.474;2023-04-29T08:32:53;11.77;;;5.18;;
72611;SDS011;60655;52.182;4.474;2023-04-29T08:34:54;11.77;;;5.22;;
72611;SDS011;60655;52.182;4.474;2023-04-29T08:36:56;15.90;;;5.18;;
72611;SDS011;60655;52.182;4.474;2023-04-29T08:38:57;12.35;;;4.68;;
72611;SDS011;60655;52.182;4.474;2023-04-29T08:40:58;11.75;;;5.28;;
72611;SDS011;60655;52.182;4.474;2023-04-29T08:42:59;13.77;;;5.28;;
72611;SDS011;60655;52.182;4.474;2023-04-29T08:45:01;12.25;;;5.97;;
72611;SDS011;60655;52.182;4.474;2023-04-29T08:47:03;13.43;;;5.70;;
72611;SDS011;60655;52.182;4.474;2023-04-29T08:49:04;14.77;;;5.68;;
72611;SDS011;60655;52.182;4.474;2023-04-29T08:51:06;12.50;;;4.95;;
72611;SDS011;60655;52.182;4.474;2023-04-29T08:53:10;13.25;;;5.47;;
72611;SDS011;60655;52.182;4.474;2023-04-29T08:55:13;14.90;;;5.68;;
72611;SDS011;60655;52.182;4.474;2023-04-29T08:57:14;14.32;;;5.35;;
72611;SDS011;60655;52.182;4.474;2023-04-29T08:59:16;16.58;;;5.30;;
72611;SDS011;60655;52.182;4.474;2023-04-29T09:01:17;11.93;;;5.43;;
72611;SDS011;60655;52.182;4.474;2023-04-29T09:03:29;17.75;;;5.68;;
72611;SDS011;60655;52.182;4.474;2023-04-29T09:05:42;13.10;;;5.20;;
72611;SDS011;60655;52.182;4.474;2023-04-29T09:07:48;13.05;;;5.13;;
72611;SDS011;60655;52.182;4.474;2023-04-29T09:09:51;12.57;;;4.47;;
72611;SDS011;60655;52.182;4.474;2023-04-29T09:11:53;10.73;;;5.03;;
72611;SDS011;60655;52.182;4.474;2023-04-29T09:13:58;12.32;;;6.15;;
72611;SDS011;60655;52.182;4.474;2023-04-29T09:16:01;13.65;;;5.18;;
72611;SDS011;60655;52.182;4.474;2023-04-29T09:18:02;11.57;;;4.22;;
72611;SDS011;60655;52.182;4.474;2023-04-29T09:20:13;11.60;;;4.70;;
72611;SDS011;60655;52.182;4.474;2023-04-29T09:22:24;10.15;;;4.97;;
72611;SDS011;60655;52.182;4.474;2023-04-29T09:24:25;14.57;;;4.75;;
72611;SDS011;60655;52.182;4.474;2023-04-29T09:26:32;13.32;;;4.57;;
72611;SDS011;60655;52.182;4.474;2023-04-29T09:28:41;12.70;;;4.75;;
72611;SDS011;60655;52.182;4.474;2023-04-29T09:30:44;13.75;;;4.82;;
72611;SDS011;60655;52.182;4.474;2023-04-29T09:37:24;14.65;;;4.65;;
72611;SDS011;60655;52.182;4.474;2023-04-29T09:39:27;12.48;;;4.90;;
72611;SDS011;60655;52.182;4.474;2023-04-29T09:41:39;11.98;;;4.75;;
72611;SDS011;60655;52.182;4.474;2023-04-29T09:44:01;13.90;;;4.35;;
72611;SDS011;60655;52.182;4.474;2023-04-29T09:46:06;12.50;;;4.10;;
72611;SDS011;60655;52.182;4.474;2023-04-29T09:48:13;10.35;;;4.07;;
72611;SDS011;60655;52.182;4.474;2023-04-29T09:50:15;9.98;;;4.32;;
72611;SDS011;60655;52.182;4.474;2023-04-29T09:52:18;10.48;;;4.00;;
72611;SDS011;60655;52.182;4.474;2023-04-29T09:54:21;11.10;;;4.05;;
72611;SDS011;60655;52.182;4.474;2023-04-29T09:56:25;11.75;;;4.70;;
72611;SDS011;60655;52.182;4.474;2023-04-29T09:58:31;10.32;;;4.00;;
72611;SDS011;60655;52.182;4.474;2023-04-29T10:00:36;10.30;;;4.40;;
72611;SDS011;60655;52.182;4.474;2023-04-29T10:02:39;11.23;;;4.30;;
72611;SDS011;60655;52.182;4.474;2023-04-29T10:04:46;13.85;;;4.57;;
72611;SDS011;60655;52.182;4.474;2023-04-29T10:06:54;12.85;;;4.07;;
72611;SDS011;60655;52.182;4.474;2023-04-29T10:08:56;14.68;;;4.82;;
72611;SDS011;60655;52.182;4.474;2023-04-29T10:11:03;11.45;;;3.72;;
72611;SDS011;60655;52.182;4.474;2023-04-29T10:13:05;10.45;;;4.18;;
72611;SDS011;60655;52.182;4.474;2023-04-29T10:15:19;9.07;;;4.28;;
72611;SDS011;60655;52.182;4.474;2023-04-29T10:21:50;9.45;;;4.35;;
72611;SDS011;60655;52.182;4.474;2023-04-29T10:23:55;11.20;;;4.22;;
72611;SDS011;60655;52.182;4.474;2023-04-29T10:25:57;11.55;;;3.63;;
72611;SDS011;60655;52.182;4.474;2023-04-29T10:28:00;13.70;;;4.80;;
72611;SDS011;60655;52.182;4.474;2023-04-29T10:30:03;8.98;;;3.90;;
72611;SDS011;60655;52.182;4.474;2023-04-29T10:32:07;15.65;;;4.45;;
72611;SDS011;60655;52.182;4.474;2023-04-29T10:34:12;12.90;;;4.57;;
72611;SDS011;60655;52.182;4.474;2023-04-29T10:36:13;13.07;;;5.03;;
72611;SDS011;60655;52.182;4.474;2023-04-29T10:38:16;11.75;;;4.47;;
72611;SDS011;60655;52.182;4.474;2023-04-29T10:40:26;12.93;;;4.72;;
72611;SDS011;60655;52.182;4.474;2023-04-29T10:42:43;13.30;;;4.75;;
72611;SDS011;60655;52.182;4.474;2023-04-29T10:47:22;12.18;;;5.07;;
72611;SDS011;60655;52.182;4.474;2023-04-29T10:49:23;10.70;;;4.82;;
72611;SDS011;60655;52.182;4.474;2023-04-29T10:51:34;11.05;;;4.68;;
72611;SDS011;60655;52.182;4.474;2023-04-29T10:56:38;12.63;;;4.60;;
72611;SDS011;60655;52.182;4.474;2023-04-29T10:58:49;10.45;;;4.70;;
72611;SDS011;60655;52.182;4.474;2023-04-29T11:00:51;9.43;;;4.25;;
72611;SDS011;60655;52.182;4.474;2023-04-29T11:02:53;11.50;;;4.55;;
72611;SDS011;60655;52.182;4.474;2023-04-29T11:05:10;11.63;;;4.40;;
72611;SDS011;60655;52.182;4.474;2023-04-29T11:07:25;11.23;;;4.38;;
72611;SDS011;60655;52.182;4.474;2023-04-29T11:09:28;9.10;;;4.18;;
72611;SDS011;60655;52.182;4.474;2023-04-29T11:11:43;12.48;;;4.78;;
72611;SDS011;60655;52.182;4.474;2023-04-29T11:13:49;12.00;;;4.63;;
72611;SDS011;60655;52.182;4.474;2023-04-29T11:15:50;10.23;;;4.60;;
72611;SDS011;60655;52.182;4.474;2023-04-29T11:17:52;12.60;;;4.65;;
72611;SDS011;60655;52.182;4.474;2023-04-29T11:19:57;13.65;;;4.40;;
72611;SDS011;60655;52.182;4.474;2023-04-29T11:22:46;12.43;;;5.00;;
72611;SDS011;60655;52.182;4.474;2023-04-29T11:24:30;11.90;;;4.22;;
72611;SDS011;60655;52.182;4.474;2023-04-29T11:26:34;10.00;;;4.40;;
72611;SDS011;60655;52.182;4.474;2023-04-29T11:28:35;9.82;;;4.95;;
72611;SDS011;60655;52.182;4.474;2023-04-29T11:30:37;12.25;;;4.80;;
72611;SDS011;60655;52.182;4.474;2023-04-29T11:32:39;10.65;;;4.28;;
72611;SDS011;60655;52.182;4.474;2023-04-29T11:34:42;8.95;;;4.22;;
72611;SDS011;60655;52.182;4.474;2023-04-29T11:36:43;13.73;;;4.90;;
72611;SDS011;60655;52.182;4.474;2023-04-29T11:38:44;12.48;;;5.15;;
72611;SDS011;60655;52.182;4.474;2023-04-29T11:40:48;11.27;;;4.95;;
72611;SDS011;60655;52.182;4.474;2023-04-29T11:42:49;11.23;;;5.10;;
72611;SDS011;60655;52.182;4.474;2023-04-29T11:44:51;12.13;;;5.22;;
72611;SDS011;60655;52.182;4.474;2023-04-29T11:47:00;13.40;;;4.47;;
72611;SDS011;60655;52.182;4.474;2023-04-29T11:49:07;9.70;;;4.60;;
72611;SDS011;60655;52.182;4.474;2023-04-29T11:51:08;11.57;;;4.68;;
72611;SDS011;60655;52.182;4.474;2023-04-29T11:53:09;11.35;;;4.95;;
72611;SDS011;60655;52.182;4.474;2023-04-29T11:55:10;11.55;;;5.13;;
72611;SDS011;60655;52.182;4.474;2023-04-29T11:57:11;12.68;;;4.53;;
72611;SDS011;60655;52.182;4.474;2023-04-29T11:59:12;12.75;;;5.07;;
72611;SDS011;60655;52.182;4.474;2023-04-29T12:01:13;12.88;;;5.30;;
72611;SDS011;60655;52.182;4.474;2023-04-29T12:03:15;12.13;;;4.95;;
72611;SDS011;60655;52.182;4.474;2023-04-29T12:05:17;11.48;;;5.47;;
72611;SDS011;60655;52.182;4.474;2023-04-29T12:07:18;12.10;;;4.97;;
72611;SDS011;60655;52.182;4.474;2023-04-29T12:09:19;12.38;;;4.72;;
72611;SDS011;60655;52.182;4.474;2023-04-29T12:11:21;12.00;;;5.28;;
72611;SDS011;60655;52.182;4.474;2023-04-29T12:13:26;11.70;;;4.72;;
72611;SDS011;60655;52.182;4.474;2023-04-29T12:15:29;12.68;;;4.60;;
72611;SDS011;60655;52.182;4.474;2023-04-29T12:17:31;11.75;;;4.35;;
72611;SDS011;60655;52.182;4.474;2023-04-29T12:19:33;13.10;;;4.28;;
72611;SDS011;60655;52.182;4.474;2023-04-29T12:21:34;9.93;;;4.10;;
72611;SDS011;60655;52.182;4.474;2023-04-29T12:23:35;10.60;;;4.10;;
72611;SDS011;60655;52.182;4.474;2023-04-29T12:25:37;11.05;;;4.07;;
72611;SDS011;60655;52.182;4.474;2023-04-29T12:27:41;12.00;;;4.57;;
72611;SDS011;60655;52.182;4.474;2023-04-29T12:29:45;10.75;;;3.80;;
72611;SDS011;60655;52.182;4.474;2023-04-29T12:31:49;10.63;;;3.63;;
72611;SDS011;60655;52.182;4.474;2023-04-29T12:33:52;11.07;;;4.72;;
72611;SDS011;60655;52.182;4.474;2023-04-29T12:35:55;11.25;;;3.60;;
72611;SDS011;60655;52.182;4.474;2023-04-29T12:37:58;9.18;;;3.75;;